Crescent, Oklahoma
Current Conditions -  °F | °C
As of 9:53 PM on Monday 22 Dec 2014 (Local Time) from KGOK Reporting Station
Clear Clear  
Wind Chill: 40°   Ceiling: Unl
Heat Index: 40°   Visibility: 10mi
Dew Point: 35°   Wind: 0mph
Humidity: 83%   Direction: NA
Pressure: 29.67"   Gusts: NA
Location:  35.95°N, 97.59°W
Report Text: KGOK 230353Z AUTO 00000KT 10SM CLR 04/02 A2967 RMK AO2 SLP049 T00440017
Loading
Personal Weather Stations






























Interactive Weather Map New forecast layout! Learn more

10-Day Weather Forecast

Advertisements
Track Severe Weather on mobile